createdAt,value
2022-11-08T00:00:11.446Z,96581.56
2022-11-08T00:02:39.127Z,96590.63
2022-11-08T00:05:24.804Z,96579.44
2022-11-08T00:08:10.734Z,96582.84
2022-11-08T00:10:56.230Z,96580.91
2022-11-08T00:13:42.056Z,96579.06
2022-11-08T00:16:08.991Z,96579.06
2022-11-08T00:18:35.937Z,96575.44
2022-11-08T00:21:04.158Z,96571.03
2022-11-08T00:23:31.223Z,96573.44
2022-11-08T00:25:58.177Z,96567.44
2022-11-08T00:28:25.139Z,96578.06
2022-11-08T00:30:52.125Z,96574.09
2022-11-08T00:33:19.066Z,96573.84
2022-11-08T00:35:46.108Z,96571.06
2022-11-08T00:38:13.146Z,96569.28
2022-11-08T00:40:40.206Z,96579.53
2022-11-08T00:43:07.177Z,96570.72
2022-11-08T00:45:34.187Z,96570.47
2022-11-08T00:48:01.188Z,96568.69
2022-11-08T00:50:28.156Z,96574.31
2022-11-08T00:52:55.149Z,96573.88
2022-11-08T00:55:22.187Z,96562.09
2022-11-08T00:58:04.418Z,96568.09
2022-11-08T01:00:31.488Z,96566.91
2022-11-08T01:03:16.947Z,96568.50
2022-11-08T01:05:44.409Z,96568.75
2022-11-08T01:08:12.766Z,96565.53
2022-11-08T01:10:48.469Z,96565.53
2022-11-08T01:13:16.294Z,96567.38
2022-11-08T01:15:45.214Z,96568.16
2022-11-08T01:18:13.738Z,96556.75
2022-11-08T01:20:45.027Z,96562.19
2022-11-08T01:23:13.055Z,96562.38
2022-11-08T01:25:45.657Z,96553.56
2022-11-08T01:28:13.228Z,96554.13
2022-11-08T01:30:43.049Z,96549.50
2022-11-08T01:33:11.411Z,96547.91
2022-11-08T01:35:39.047Z,96546.31
2022-11-08T01:38:06.766Z,96538.94
2022-11-08T01:40:34.346Z,96538.34
2022-11-08T01:43:33.308Z,96547.16
2022-11-08T01:46:18.471Z,96540.78
2022-11-08T01:49:00.895Z,96543.75
2022-11-08T01:51:53.788Z,96532.78
2022-11-08T01:54:45.306Z,96531.16
2022-11-08T01:57:20.347Z,96534.56
2022-11-08T01:59:51.128Z,96529.38
2022-11-08T02:02:19.873Z,96523.16
2022-11-08T02:04:47.766Z,96520.75
2022-11-08T02:07:16.269Z,96522.19
2022-11-08T02:09:46.688Z,96519.59
2022-11-08T02:12:16.049Z,96510.81
2022-11-08T02:14:43.432Z,96516.22
2022-11-08T02:17:11.175Z,96504.41
2022-11-08T02:19:40.216Z,96504.41
2022-11-08T02:22:17.787Z,96507.44
2022-11-08T02:24:45.166Z,96498.03
2022-11-08T02:27:12.849Z,96492.66
2022-11-08T02:29:39.926Z,96496.81
2022-11-08T02:32:07.289Z,96499.44
2022-11-08T02:34:48.907Z,96498.44
2022-11-08T02:37:18.848Z,96502.81
2022-11-08T02:39:48.032Z,96499.03
2022-11-08T02:42:18.740Z,96499.63
2022-11-08T02:44:48.974Z,96490.81
2022-11-08T02:47:16.329Z,96491.38
2022-11-08T02:49:43.446Z,96485.97
2022-11-08T02:52:10.636Z,96484.19
2022-11-08T02:54:37.627Z,96476.16
2022-11-08T02:57:04.665Z,96478.56
2022-11-08T02:59:31.688Z,96473.56
2022-11-08T03:01:58.811Z,96474.72
2022-11-08T03:04:26.026Z,96472.31
2022-11-08T03:06:53.065Z,96482.13
2022-11-08T03:09:20.126Z,96482.28
2022-11-08T03:11:47.233Z,96484.69
2022-11-08T03:14:14.227Z,96482.88
2022-11-08T03:16:41.226Z,96484.69
2022-11-08T03:19:08.166Z,96477.75
2022-11-08T03:21:36.932Z,96475.56
2022-11-08T03:24:05.581Z,96481.97
2022-11-08T03:26:33.087Z,96484.41
2022-11-08T03:29:00.112Z,96480.22
2022-11-08T03:31:27.828Z,96475.44
2022-11-08T03:33:54.766Z,96479.63
2022-11-08T03:36:21.866Z,96478.09
2022-11-08T03:38:48.905Z,96480.09
2022-11-08T03:41:16.008Z,96473.28
2022-11-08T03:43:43.067Z,96476.69
2022-11-08T03:46:10.133Z,96476.28
2022-11-08T03:48:37.065Z,96476.28
2022-11-08T03:51:04.275Z,96478.09
2022-11-08T03:53:31.365Z,96471.09
2022-11-08T03:56:01.907Z,96467.31
2022-11-08T03:58:28.949Z,96465.88
2022-11-08T04:00:58.398Z,96466.31
2022-11-08T04:03:25.748Z,96463.28
2022-11-08T04:05:52.750Z,96464.53
2022-11-08T04:08:20.084Z,96466.50
2022-11-08T04:10:47.387Z,96464.50
2022-11-08T04:13:33.007Z,96462.88
2022-11-08T04:16:00.156Z,96460.44
2022-11-08T04:18:45.533Z,96466.06
2022-11-08T04:21:21.983Z,96458.63
2022-11-08T04:23:51.196Z,96458.22
2022-11-08T04:26:19.448Z,96464.81
2022-11-08T04:28:46.311Z,96458.97
2022-11-08T04:31:18.655Z,96458.97
2022-11-08T04:33:46.266Z,96452.78
2022-11-08T04:36:15.493Z,96442.94
2022-11-08T04:38:42.586Z,96450.34
2022-11-08T04:41:14.605Z,96444.38
2022-11-08T04:43:42.332Z,96446.59
2022-11-08T04:46:14.927Z,96444.03
2022-11-08T04:48:42.965Z,96448.28
2022-11-08T04:51:19.081Z,96452.88
2022-11-08T04:53:46.645Z,96453.69
2022-11-08T04:56:19.843Z,96452.06
2022-11-08T04:58:52.067Z,96451.50
2022-11-08T05:01:21.735Z,96452.06
2022-11-08T05:03:51.453Z,96448.06
2022-11-08T05:06:30.629Z,96449.06
2022-11-08T05:08:59.393Z,96449.47
2022-11-08T05:11:28.448Z,96450.09
2022-11-08T05:13:56.546Z,96437.69
2022-11-08T05:16:29.835Z,96443.66
2022-11-08T05:18:56.895Z,96443.06
2022-11-08T05:21:43.671Z,96439.06
2022-11-08T05:24:13.342Z,96437.50
2022-11-08T05:26:42.824Z,96443.09
2022-11-08T05:29:10.645Z,96445.75
2022-11-08T05:31:37.681Z,96450.19
2022-11-08T05:34:04.950Z,96448.22
2022-11-08T05:36:31.930Z,96444.03
2022-11-08T05:38:58.849Z,96445.03
2022-11-08T05:41:26.541Z,96444.47
2022-11-08T05:43:55.268Z,96444.84
2022-11-08T05:46:23.857Z,96446.84
2022-11-08T05:48:51.450Z,96438.88
2022-11-08T05:51:19.262Z,96443.28
2022-11-08T05:53:48.870Z,96442.31
2022-11-08T05:56:16.927Z,96449.47
2022-11-08T05:58:44.666Z,96451.69
2022-11-08T06:01:14.473Z,96454.69
2022-11-08T06:03:41.943Z,96442.91
2022-11-08T06:06:20.639Z,96439.53
2022-11-08T06:08:50.743Z,96446.09
2022-11-08T06:11:22.601Z,96452.72
2022-11-08T06:13:50.137Z,96447.09
2022-11-08T06:16:18.842Z,96445.50
2022-11-08T06:18:45.860Z,96439.69
2022-11-08T06:21:15.300Z,96442.28
2022-11-08T06:23:42.301Z,96441.06
2022-11-08T06:26:10.054Z,96446.44
2022-11-08T06:28:37.050Z,96448.22
2022-11-08T06:31:05.080Z,96446.00
2022-11-08T06:33:32.752Z,96444.19
2022-11-08T06:35:59.830Z,96454.94
2022-11-08T06:38:27.032Z,96446.72
2022-11-08T06:40:54.432Z,96448.69
2022-11-08T06:43:21.735Z,96445.28
2022-11-08T06:45:49.151Z,96447.63
2022-11-08T06:48:16.152Z,96448.16
2022-11-08T06:50:43.606Z,96448.91
2022-11-08T06:53:13.242Z,96455.47
2022-11-08T06:55:40.321Z,96450.84
2022-11-08T06:58:07.264Z,96448.84
2022-11-08T07:00:34.491Z,96446.81
2022-11-08T07:03:03.717Z,96456.16
2022-11-08T07:05:33.295Z,96465.38
2022-11-08T07:08:01.233Z,96458.31
2022-11-08T07:10:31.038Z,96460.28
2022-11-08T07:13:04.072Z,96456.66
2022-11-08T07:15:32.553Z,96455.03
2022-11-08T07:18:04.261Z,96450.91
2022-11-08T07:20:31.970Z,96454.66
2022-11-08T07:22:59.396Z,96451.97
2022-11-08T07:25:27.902Z,96451.13
2022-11-08T07:27:59.482Z,96448.25
2022-11-08T07:30:27.491Z,96452.91
2022-11-08T07:32:56.141Z,96447.63
2022-11-08T07:35:23.702Z,96450.59
2022-11-08T07:37:50.750Z,96442.84
2022-11-08T07:40:17.812Z,96449.59
2022-11-08T07:43:10.144Z,96448.50
2022-11-08T07:45:31.882Z,96447.97
2022-11-08T07:48:11.077Z,96446.44
2022-11-08T07:50:40.642Z,96439.53
2022-11-08T07:53:08.382Z,96439.03
2022-11-08T07:55:40.029Z,96441.56
2022-11-08T07:58:08.351Z,96454.09
2022-11-08T08:00:36.701Z,96449.94
2022-11-08T08:03:05.301Z,96437.81
2022-11-08T08:05:38.854Z,96431.34
2022-11-08T08:08:06.392Z,96438.88
2022-11-08T08:10:33.763Z,96432.31
2022-11-08T08:13:01.028Z,96429.94
2022-11-08T08:15:28.003Z,96432.44
2022-11-08T08:17:54.997Z,96430.28
2022-11-08T08:20:21.965Z,96435.75
2022-11-08T08:22:50.675Z,96429.16
2022-11-08T08:25:18.554Z,96436.22
2022-11-08T08:27:50.332Z,96430.88
2022-11-08T08:30:18.117Z,96430.53
2022-11-08T08:32:47.994Z,96435.19
2022-11-08T08:35:17.572Z,96428.03
2022-11-08T08:37:44.474Z,96434.81
2022-11-08T08:40:12.145Z,96427.41
2022-11-08T08:42:39.092Z,96432.38
2022-11-08T08:45:10.664Z,96427.13
2022-11-08T08:47:40.642Z,96433.94
2022-11-08T08:50:07.859Z,96428.66
2022-11-08T08:52:34.861Z,96436.44
2022-11-08T08:55:02.091Z,96433.31
2022-11-08T08:57:29.213Z,96438.72
2022-11-08T09:02:44.132Z,96436.91
2022-11-08T09:05:12.911Z,96432.72
2022-11-08T09:07:40.781Z,96436.34
2022-11-08T09:10:10.499Z,96425.88
2022-11-08T09:12:38.893Z,96425.75
2022-11-08T09:15:06.664Z,96428.63
2022-11-08T09:17:33.708Z,96427.31
2022-11-08T09:20:00.700Z,96434.34
2022-11-08T09:22:27.802Z,96430.28
2022-11-08T09:24:54.893Z,96432.22
2022-11-08T09:27:21.913Z,96424.28
2022-11-08T09:29:48.841Z,96431.31
2022-11-08T09:32:17.208Z,96426.72
2022-11-08T09:34:46.079Z,96425.03
2022-11-08T09:37:13.461Z,96420.91
2022-11-08T09:39:40.571Z,96420.50
2022-11-08T09:42:22.447Z,96420.84
2022-11-08T09:44:52.192Z,96424.88
2022-11-08T09:47:30.593Z,96422.34
2022-11-08T09:50:16.268Z,96423.22
2022-11-08T09:52:47.541Z,96420.38
2022-11-08T09:55:27.922Z,96419.38
2022-11-08T09:58:07.111Z,96420.19
2022-11-08T10:00:38.271Z,96401.47
2022-11-08T10:03:05.322Z,96406.75
2022-11-08T10:05:42.331Z,96399.88
2022-11-08T10:08:23.672Z,96396.66
2022-11-08T10:11:02.173Z,96402.72
2022-11-08T10:13:40.531Z,96396.06
2022-11-08T10:16:25.734Z,96395.50
2022-11-08T10:19:06.462Z,96394.19
2022-11-08T10:21:53.882Z,96392.59
2022-11-08T10:24:37.650Z,96388.22
2022-11-08T10:27:33.481Z,96395.06
2022-11-08T10:30:04.132Z,96391.53
2022-11-08T10:32:33.829Z,96379.84
2022-11-08T10:35:12.966Z,96374.47
2022-11-08T10:37:42.563Z,96377.06
2022-11-08T10:40:17.462Z,96374.59
2022-11-08T10:43:06.813Z,96371.88
2022-11-08T10:45:36.380Z,96372.22
2022-11-08T10:48:04.751Z,96367.91
2022-11-08T10:50:43.263Z,96370.47
2022-11-08T10:53:22.342Z,96368.78
2022-11-08T10:55:52.574Z,96367.38
2022-11-08T10:58:31.884Z,96360.19
2022-11-08T11:01:06.535Z,96359.69
2022-11-08T11:03:33.638Z,96364.06
2022-11-08T11:06:03.154Z,96364.19
2022-11-08T11:08:30.432Z,96359.41
2022-11-08T11:11:34.856Z,96363.94
2022-11-08T11:14:23.551Z,96356.22
2022-11-08T11:17:13.915Z,96355.56
2022-11-08T11:19:45.437Z,96357.06
2022-11-08T11:22:15.003Z,96351.03
2022-11-08T11:24:52.006Z,96359.66
2022-11-08T11:27:32.361Z,96351.84
2022-11-08T11:30:24.382Z,96342.59
2022-11-08T11:33:26.562Z,96339.28
2022-11-08T11:36:20.605Z,96334.19
2022-11-08T11:39:01.241Z,96332.34
2022-11-08T11:41:47.880Z,96331.38
2022-11-08T11:44:40.353Z,96334.25
2022-11-08T11:47:17.848Z,96327.09
2022-11-08T11:49:47.221Z,96322.59
2022-11-08T11:52:19.913Z,96318.81
2022-11-08T11:54:49.714Z,96322.09
2022-11-08T11:57:31.901Z,96324.19
2022-11-08T12:00:11.539Z,96329.19
2022-11-08T12:13:34.719Z,96311.06
2022-11-08T12:16:14.340Z,96316.69
2022-11-08T12:19:02.782Z,96314.28
2022-11-08T12:21:38.462Z,96307.97
2022-11-08T12:24:37.021Z,96311.00
2022-11-08T12:27:14.564Z,96308.03
2022-11-08T12:29:53.561Z,96303.66
2022-11-08T12:32:35.144Z,96308.19
2022-11-08T12:35:30.755Z,96301.06
2022-11-08T12:37:57.752Z,96293.63
2022-11-08T12:40:30.392Z,96295.88
2022-11-08T12:43:30.331Z,96294.63
2022-11-08T12:46:03.924Z,96298.91
2022-11-08T12:48:48.687Z,96293.78
2022-11-08T12:51:42.321Z,96290.66
2022-11-08T12:54:37.262Z,96289.19
2022-11-08T12:57:10.520Z,96284.34
2022-11-08T12:59:45.259Z,96292.72
2022-11-08T13:02:34.339Z,96299.81
2022-11-08T13:05:18.342Z,96293.22
2022-11-08T13:07:52.645Z,96289.47
2022-11-08T13:10:47.824Z,96289.56
2022-11-08T13:13:22.600Z,96291.38
2022-11-08T13:16:14.900Z,96291.81
2022-11-08T13:18:48.282Z,96287.53
2022-11-08T13:21:30.629Z,96293.44
2022-11-08T13:24:14.256Z,96294.25
2022-11-08T13:26:50.392Z,96299.91
2022-11-08T13:29:20.268Z,96296.00
2022-11-08T13:32:03.061Z,96296.72
2022-11-08T13:34:38.899Z,96302.13
2022-11-08T13:37:24.700Z,96299.78
2022-11-08T13:40:33.540Z,96304.56
2022-11-08T13:43:18.961Z,96303.25
2022-11-08T13:45:46.706Z,96306.25
2022-11-08T13:48:35.251Z,96303.66
2022-11-08T13:51:26.940Z,96313.59
2022-11-08T13:54:00.400Z,96307.31
2022-11-08T13:56:46.260Z,96309.94
2022-11-08T13:59:31.523Z,96309.56
2022-11-08T14:01:58.787Z,96308.59
2022-11-08T14:04:33.189Z,96311.19
2022-11-08T14:07:28.093Z,96309.84
2022-11-08T14:10:07.402Z,96315.50
2022-11-08T14:12:53.259Z,96322.19
2022-11-08T14:15:41.802Z,96329.41
2022-11-08T14:18:17.534Z,96324.16
2022-11-08T14:20:47.110Z,96318.97
2022-11-08T14:23:25.330Z,96314.78
2022-11-08T14:26:14.152Z,96316.94
2022-11-08T14:28:45.410Z,96315.94
2022-11-08T14:31:29.453Z,96317.53
2022-11-08T14:33:57.510Z,96301.47
2022-11-08T14:36:26.254Z,96309.13
2022-11-08T14:39:13.420Z,96304.63
2022-11-08T14:41:46.532Z,96314.13
2022-11-08T14:44:16.439Z,96306.47
2022-11-08T14:46:43.501Z,96308.59
2022-11-08T14:49:11.842Z,96305.94
2022-11-08T14:51:38.601Z,96314.09
2022-11-08T14:54:17.425Z,96316.72
2022-11-08T14:56:45.382Z,96315.13
2022-11-08T14:59:13.684Z,96310.38
2022-11-08T15:01:43.904Z,96304.31
2022-11-08T15:04:18.058Z,96310.34
2022-11-08T15:06:52.379Z,96313.44
2022-11-08T15:09:25.289Z,96317.66
2022-11-08T15:12:30.980Z,96308.41
2022-11-08T15:15:01.394Z,96304.94
2022-11-08T15:17:37.202Z,96307.81
2022-11-08T15:20:15.961Z,96305.41
2022-11-08T15:22:45.954Z,96310.06
2022-11-08T15:25:29.790Z,96303.41
2022-11-08T15:27:58.662Z,96306.53
2022-11-08T15:30:31.401Z,96306.41
2022-11-08T15:32:58.506Z,96311.31
2022-11-08T15:35:36.774Z,96310.16
2022-11-08T15:38:23.625Z,96313.56
2022-11-08T15:40:53.435Z,96309.00
2022-11-08T15:43:32.790Z,96303.69
2022-11-08T15:46:02.823Z,96309.13
2022-11-08T15:48:30.310Z,96296.47
2022-11-08T15:50:58.095Z,96306.06
2022-11-08T15:53:26.785Z,96302.03
2022-11-08T15:56:00.609Z,96302.47
2022-11-08T15:58:30.555Z,96308.16
2022-11-08T16:01:00.130Z,96312.31
2022-11-08T16:03:27.720Z,96307.50
2022-11-08T16:05:57.003Z,96311.41
2022-11-08T16:08:24.482Z,96307.06
2022-11-08T16:10:59.624Z,96303.78
2022-11-08T16:13:39.052Z,96302.13
2022-11-08T16:16:14.988Z,96299.13
2022-11-08T16:18:42.335Z,96301.19
2022-11-08T16:21:13.937Z,96303.47
2022-11-08T16:23:41.807Z,96308.88
2022-11-08T16:26:16.352Z,96308.50
2022-11-08T16:28:44.104Z,96314.28
2022-11-08T16:31:16.451Z,96317.97
2022-11-08T16:33:45.183Z,96312.94
2022-11-08T16:36:22.033Z,96311.91
2022-11-08T16:38:52.712Z,96322.66
2022-11-08T16:41:20.804Z,96314.72
2022-11-08T16:43:47.724Z,96318.59
2022-11-08T16:46:15.176Z,96325.06
2022-11-08T16:48:52.288Z,96324.19
2022-11-08T16:51:22.041Z,96324.66
2022-11-08T16:53:49.656Z,96324.03
2022-11-08T16:56:16.991Z,96317.44
2022-11-08T16:58:44.348Z,96321.63
2022-11-08T17:01:19.451Z,96317.13
2022-11-08T17:03:46.881Z,96315.75
2022-11-08T17:06:18.237Z,96324.59
2022-11-08T17:08:46.814Z,96326.34
2022-11-08T17:11:22.703Z,96327.59
2022-11-08T17:13:50.863Z,96328.56
2022-11-08T17:16:18.943Z,96329.59
2022-11-08T17:18:52.254Z,96325.63
2022-11-08T17:24:07.358Z,96329.66
2022-11-08T17:26:34.345Z,96324.66
2022-11-08T17:29:01.331Z,96325.28
2022-11-08T17:31:28.345Z,96321.41
2022-11-08T17:33:56.162Z,96323.44
2022-11-08T17:36:23.762Z,96318.94
2022-11-08T17:38:50.781Z,96325.91
2022-11-08T17:41:18.083Z,96322.72
2022-11-08T17:43:45.080Z,96321.13
2022-11-08T17:46:12.451Z,96321.59
2022-11-08T17:48:40.086Z,96325.25
2022-11-08T17:51:07.462Z,96321.06
2022-11-08T17:53:35.248Z,96323.88
2022-11-08T17:56:05.084Z,96326.63
2022-11-08T17:58:34.347Z,96325.03
2022-11-08T18:01:04.175Z,96324.47
2022-11-08T18:03:31.332Z,96317.31
2022-11-08T18:06:04.010Z,96313.56
2022-11-08T18:08:32.763Z,96311.53
2022-11-08T18:11:00.788Z,96311.75
2022-11-08T18:13:29.238Z,96310.94
2022-11-08T18:16:04.922Z,96316.91
2022-11-08T18:18:31.931Z,96313.63
2022-11-08T18:20:58.872Z,96312.91
2022-11-08T18:23:25.991Z,96306.31
2022-11-08T18:25:53.584Z,96305.66
2022-11-08T18:28:20.662Z,96301.09
2022-11-08T18:30:48.191Z,96308.84
2022-11-08T18:33:17.143Z,96314.00
2022-11-08T18:35:45.221Z,96313.06
2022-11-08T18:38:13.973Z,96316.97
2022-11-08T18:40:47.584Z,96318.78
2022-11-08T18:43:15.704Z,96318.78
2022-11-08T18:45:42.852Z,96311.06
2022-11-08T18:48:09.783Z,96314.59
2022-11-08T18:50:36.792Z,96320.03
2022-11-08T18:53:07.204Z,96315.50
2022-11-08T18:55:34.773Z,96320.72
2022-11-08T18:58:02.256Z,96318.81
2022-11-08T19:00:29.229Z,96316.41
2022-11-08T19:02:56.367Z,96317.88
2022-11-08T19:05:23.829Z,96307.31
2022-11-08T19:07:50.741Z,96309.59
2022-11-08T19:10:17.821Z,96310.84
2022-11-08T19:12:44.822Z,96307.66
2022-11-08T19:15:12.021Z,96301.06
2022-11-08T19:17:39.099Z,96301.97
2022-11-08T19:20:06.819Z,96308.44
2022-11-08T19:22:33.961Z,96301.94
2022-11-08T19:25:00.883Z,96310.66
2022-11-08T19:27:27.832Z,96307.38
2022-11-08T19:29:54.840Z,96314.84
2022-11-08T19:32:23.391Z,96316.97
2022-11-08T19:34:50.482Z,96311.19
2022-11-08T19:37:17.524Z,96317.06
2022-11-08T19:39:44.491Z,96317.28
2022-11-08T19:42:11.522Z,96308.91
2022-11-08T19:44:38.492Z,96317.75
2022-11-08T19:47:05.612Z,96317.97
2022-11-08T19:49:33.463Z,96317.75
2022-11-08T19:52:00.502Z,96312.75
2022-11-08T19:54:27.632Z,96313.09
2022-11-08T19:57:09.787Z,96310.50
2022-11-08T19:59:36.796Z,96309.44
2022-11-08T20:02:03.876Z,96297.66
2022-11-08T20:04:30.914Z,96308.09
2022-11-08T20:06:58.812Z,96308.75
2022-11-08T20:09:30.529Z,96311.25
2022-11-08T20:11:58.578Z,96308.41
2022-11-08T20:14:25.590Z,96312.94
2022-11-08T20:16:54.060Z,96307.50
2022-11-08T20:19:21.305Z,96308.16
2022-11-08T20:21:48.713Z,96296.81
2022-11-08T20:24:16.278Z,96311.72
2022-11-08T20:26:43.895Z,96311.78
2022-11-08T20:29:11.460Z,96306.78
2022-11-08T20:31:39.146Z,96305.78
2022-11-08T20:34:09.875Z,96307.25
2022-11-08T20:36:38.113Z,96302.19
2022-11-08T20:39:07.744Z,96298.66
2022-11-08T20:41:37.951Z,96301.03
2022-11-08T20:44:06.536Z,96301.47
2022-11-08T20:46:34.694Z,96300.09
2022-11-08T20:49:01.957Z,96292.75
2022-11-08T20:51:30.774Z,96304.41
2022-11-08T20:53:59.265Z,96294.19
2022-11-08T20:56:27.487Z,96308.69
2022-11-08T20:58:54.316Z,96304.94
2022-11-08T21:01:24.297Z,96305.94
2022-11-08T21:03:52.698Z,96310.03
2022-11-08T21:06:23.214Z,96306.81
2022-11-08T21:09:01.489Z,96305.81
2022-11-08T21:11:34.813Z,96321.38
2022-11-08T21:14:03.222Z,96314.78
2022-11-08T21:16:38.232Z,96310.94
2022-11-08T21:19:14.339Z,96320.16
2022-11-08T21:21:41.320Z,96310.28
2022-11-08T21:24:08.401Z,96309.25
2022-11-08T21:26:36.569Z,96301.00
2022-11-08T21:29:05.700Z,96298.81
2022-11-08T21:31:34.022Z,96295.06
2022-11-08T21:34:01.055Z,96301.88
2022-11-08T21:36:29.405Z,96295.50
2022-11-08T21:38:56.554Z,96298.91
2022-11-08T21:41:23.552Z,96302.31
2022-11-08T21:43:50.535Z,96301.72
2022-11-08T21:46:27.223Z,96300.59
2022-11-08T21:48:56.615Z,96293.34
2022-11-08T21:51:24.099Z,96304.00
2022-11-08T21:53:54.660Z,96303.41
2022-11-08T21:56:24.480Z,96305.81
2022-11-08T21:58:51.661Z,96303.41
2022-11-08T22:01:18.938Z,96304.44
2022-11-08T22:03:46.831Z,96298.41
2022-11-08T22:06:14.167Z,96301.28
2022-11-08T22:08:41.112Z,96292.50
2022-11-08T22:11:08.192Z,96298.50
2022-11-08T22:13:35.223Z,96305.31
2022-11-08T22:16:02.253Z,96299.50
2022-11-08T22:21:34.721Z,96292.81
2022-11-08T22:24:01.821Z,96291.78
2022-11-08T22:26:28.761Z,96289.97
2022-11-08T22:28:55.773Z,96290.97
2022-11-08T22:31:22.720Z,96287.34
2022-11-08T22:33:49.871Z,96288.38
2022-11-08T22:36:19.441Z,96291.78
2022-11-08T22:38:47.160Z,96290.50
2022-11-08T22:41:21.720Z,96283.25
2022-11-08T22:43:49.502Z,96282.31
2022-11-08T22:46:17.256Z,96284.41
2022-11-08T22:48:44.485Z,96288.50
2022-11-08T22:51:12.319Z,96285.75
2022-11-08T22:53:40.240Z,96289.38
2022-11-08T22:56:11.211Z,96289.78
2022-11-08T22:58:39.313Z,96292.25
2022-11-08T23:01:12.062Z,96290.44
2022-11-08T23:03:39.155Z,96288.47
2022-11-08T23:06:06.152Z,96284.53
2022-11-08T23:08:33.354Z,96288.34
2022-11-08T23:11:19.881Z,96280.38
2022-11-08T23:14:05.559Z,96288.63
2022-11-08T23:16:35.302Z,96276.88
2022-11-08T23:19:21.680Z,96286.09
2022-11-08T23:22:07.491Z,96273.78
2022-11-08T23:24:34.494Z,96268.00
2022-11-08T23:27:21.112Z,96269.41
2022-11-08T23:30:07.723Z,96274.88
2022-11-08T23:32:34.925Z,96269.06
2022-11-08T23:35:02.608Z,96274.94
2022-11-08T23:37:29.903Z,96275.69
2022-11-08T23:40:15.733Z,96263.50
2022-11-08T23:43:01.439Z,96272.94
2022-11-08T23:45:28.405Z,96265.78
2022-11-08T23:47:55.411Z,96264.59
2022-11-08T23:50:22.541Z,96262.63
2022-11-08T23:52:49.392Z,96267.69
2022-11-08T23:55:16.353Z,96255.69
2022-11-08T23:57:43.233Z,96253.94
